• Join FlightAware (Why Join?)
  • Login
  • US Flag 
07:12PM EDT


 

Airport Tracker/Info


-or-


 

Live Flight TrackerFlight Track Log ✈ ASQ2597 ✈ 11-Jun-2013 ✈ KBPT - KDFW

Flight Track Log - Related Links

Times and Time Zones

All times are in EDT time to prevent confusion due to time zone crossing. See the ASQ2597 flight status page for this flight to view local times or setup timezone preferences in your user account.

Time Position Orientation Groundspeed Altitude Reporting Facility
EDT Latitude Longitude Course Direction KTS MPH feet Rate Location/Type
07:33AM 29.9447 -93.9753 41° Northeast 185 213 1,900  Level Houston Center
07:34AM 29.9944 -93.9250 41° Northeast 257 296 5,300 2,640 Climbing Houston Center
07:35AM 30.0647 -93.9578 338° Northwest 269 310 7,600 2,340 Climbing Houston Center
07:36AM 30.1394 -94.0039 332° Northwest 294 338 10,100 1,620 Climbing Houston Center
07:37AM 30.2250 -94.0586 331° Northwest 344 396 11,000 480 Climbing Houston Center
07:38AM 30.3225 -94.1192 332° Northwest 392 451 11,100 1,020 Climbing Houston Center
07:39AM 30.4233 -94.1842 331° Northwest 411 473 13,100 1,860 Climbing Houston Center
07:40AM 30.5203 -94.2467 331° Northwest 399 459 14,900 1,620 Climbing Houston Center
07:41AM 30.6181 -94.3086 331° Northwest 399 459 16,400 1,500 Climbing Houston Center
07:42AM 30.7272 -94.3797 331° Northwest 401 461 18,000 1,500 Climbing Houston Center
07:43AM 30.8086 -94.4697 316° Northwest 406 467 19,500 1,440 Climbing Houston Center
07:44AM 30.8858 -94.5644 314° West 402 463 21,000 1,440 Climbing Houston Center
07:45AM 30.9628 -94.6600 313° West 402 463 22,500 1,500 Climbing Houston Center
07:46AM 31.0386 -94.7547 313° West 396 456 24,100 1,500 Climbing Houston Center
07:47AM 31.1139 -94.8503 313° West 394 453 25,600 900 Climbing Houston Center
07:48AM 31.1919 -94.9486 313° West 404 465 26,000 180 Climbing Houston Center
07:49AM 31.2747 -95.0522 313° West 424 488 26,000  Level Houston Center
07:50AM 31.3594 -95.1572 313° West 436 502 26,000  Level Houston Center
07:51AM 31.4447 -95.2653 313° West 448 516 26,000  Level Houston Center
07:52AM 31.5300 -95.3739 313° West 450 518 26,000  Level Houston Center
07:53AM 31.6161 -95.4822 313° West 452 520 26,000  Level Houston Center
07:54AM 31.6608 -95.5439 310° West 440 506 26,000  Level Fort Worth Center
07:55AM 31.7394 -95.6447 313° West 454 522 26,000  Level Fort Worth Center
07:56AM 31.8267 -95.7531 313° West 454 522 26,000  Level Fort Worth Center
07:57AM 31.9117 -95.8667 311° West 454 522 26,000 -180 Level Fort Worth Center
07:58AM 32.0047 -95.9825 313° West 454 522 25,700 -1,020 Descending Fort Worth Center
07:59AM 32.0897 -96.1014 310° West 460 529 24,000 -2,100 Descending Fort Worth Center
08:00AM 32.1806 -96.2106 315° West 460 529 21,500 -2,460 Descending Fort Worth Center
08:01AM 32.2669 -96.3150 314° West 448 516 19,100 -2,460 Descending Fort Worth Center
08:02AM 32.3536 -96.4175 315° West 443 510 16,600 -2,400 Descending Fort Worth Center
08:03AM 32.4397 -96.5150 316° Northwest 437 503 14,400 -2,400 Descending Fort Worth Center
08:04AM 32.5156 -96.6078 314° West 414 476 11,800 -1,680 Descending Fort Worth Center
08:05AM 32.5933 -96.7008 315° West 397 457 11,100 -480 Descending Fort Worth Center
08:05AM 32.6333 -96.7500 314° West 392 451 11,100 -120 Level Dallas / Fort Worth TRACON
08:06AM 32.7000 -96.8333 314° West 323 372 11,000  Descending Dallas / Fort Worth TRACON
08:07AM 32.7667 -96.9000 320° Northwest 275 316 11,100 -180 Climbing Dallas / Fort Worth TRACON
08:08AM 32.8500 -96.9000 360° North 264 304 10,700 -1,020 Descending Dallas / Fort Worth TRACON
08:09AM 32.9167 -96.9167 348° North 258 297 9,000 -1,920 Descending Dallas / Fort Worth TRACON
08:10AM 32.9833 -96.9333 348° North 253 291 6,900 -2,220 Descending Dallas / Fort Worth TRACON
08:11AM 33.0500 -96.9500 348° North 239 275 4,600 -1,920 Descending Dallas / Fort Worth TRACON
08:12AM 33.0500 -97.0167 270° West 178 205 3,000 -1,200 Descending Dallas / Fort Worth TRACON
08:13AM 33.0167 -97.0167 180° South 165 190 2,500 -720 Descending Dallas / Fort Worth TRACON
08:14AM 32.9667 -97.0167 180° South 138 159 1,800 -720 Descending Dallas / Fort Worth TRACON
08:15AM 32.9333 -97.0167 180° South 124 143 1,100 -660 Descending Dallas / Fort Worth TRACON